createdAt,value
2022-08-26T00:01:29.222Z,17.1
2022-08-26T00:07:11.933Z,16.9
2022-08-26T00:13:10.227Z,16.8
2022-08-26T00:19:14.657Z,16.7
2022-08-26T00:25:04.526Z,16.5
2022-08-26T00:30:42.836Z,16.4
2022-08-26T00:36:20.779Z,16.3
2022-08-26T00:41:19.061Z,16.1
2022-08-26T00:47:03.055Z,16.1
2022-08-26T00:53:04.740Z,15.9
2022-08-26T00:58:57.392Z,15.9
2022-08-26T01:04:42.462Z,15.8
2022-08-26T01:10:15.226Z,15.7
2022-08-26T01:15:49.198Z,15.6
2022-08-26T01:21:34.179Z,15.6
2022-08-26T01:27:32.384Z,15.5
2022-08-26T01:33:16.736Z,15.4
2022-08-26T01:39:14.340Z,15.4
2022-08-26T01:45:07.650Z,15.4
2022-08-26T01:51:04.181Z,15.3
2022-08-26T01:57:26.905Z,15.3
2022-08-26T02:03:06.010Z,15.3
2022-08-26T02:08:58.735Z,15.3
2022-08-26T02:14:48.581Z,15.2
2022-08-26T02:20:47.109Z,15.1
2022-08-26T02:26:18.180Z,15
2022-08-26T02:31:56.561Z,14.9
2022-08-26T02:37:44.791Z,14.8
2022-08-26T02:43:34.223Z,14.8
2022-08-26T02:49:30.857Z,14.6
2022-08-26T02:54:58.094Z,14.6
2022-08-26T03:00:52.720Z,14.6
2022-08-26T03:06:47.016Z,14.5
2022-08-26T03:12:23.824Z,14.6
2022-08-26T03:18:17.507Z,14.5
2022-08-26T03:23:46.390Z,14.5
2022-08-26T03:29:33.081Z,14.5
2022-08-26T03:35:21.903Z,14.5
2022-08-26T03:41:04.459Z,14.4
2022-08-26T03:46:28.934Z,14.5
2022-08-26T03:52:20.228Z,14.6
2022-08-26T03:58:11.804Z,14.6
2022-08-26T04:04:00.994Z,14.6
2022-08-26T04:09:41.562Z,14.7
2022-08-26T04:15:31.099Z,14.9
2022-08-26T04:20:57.821Z,15.1
2022-08-26T04:26:42.641Z,15.3
2022-08-26T04:32:29.154Z,15.5
2022-08-26T04:38:26.168Z,15.8
2022-08-26T04:43:59.566Z,16.1
2022-08-26T04:49:51.944Z,16.4
2022-08-26T04:55:55.183Z,16.8
2022-08-26T05:01:40.743Z,17.3
2022-08-26T05:07:34.183Z,17.9
2022-08-26T05:12:50.217Z,18.5
2022-08-26T05:18:43.190Z,19.1
2022-08-26T05:24:27.663Z,19.7
2022-08-26T05:29:56.938Z,20.3
2022-08-26T05:35:47.707Z,20.9
2022-08-26T05:41:22.672Z,22
2022-08-26T05:47:18.216Z,23.3
2022-08-26T05:53:03.515Z,24.4
2022-08-26T05:58:54.748Z,25.6
2022-08-26T06:04:46.225Z,26.2
2022-08-26T06:11:02.228Z,26.5
2022-08-26T06:17:00.921Z,27.1
2022-08-26T06:22:46.811Z,27.9
2022-08-26T06:28:47.352Z,29.9
2022-08-26T06:34:34.644Z,39.3
2022-08-26T06:40:25.383Z,43.1
2022-08-26T06:46:11.764Z,43.4
2022-08-26T06:51:56.303Z,43.2
2022-08-26T06:57:39.791Z,42.6
2022-08-26T07:03:39.543Z,45.8
2022-08-26T07:09:30.417Z,52.2
2022-08-26T07:15:23.968Z,46.6
2022-08-26T07:21:34.687Z,41.3
2022-08-26T07:27:22.417Z,42.6
2022-08-26T07:33:13.591Z,43.2
2022-08-26T07:39:09.138Z,43.4
2022-08-26T07:44:56.929Z,44.1
2022-08-26T07:51:06.754Z,44.9
2022-08-26T07:56:49.822Z,45.3
2022-08-26T08:02:47.129Z,45.8
2022-08-26T08:09:20.750Z,46.3
2022-08-26T08:14:51.564Z,47.6
2022-08-26T08:20:59.319Z,49.5
2022-08-26T08:26:58.688Z,50.9
2022-08-26T08:33:11.164Z,41.4
2022-08-26T08:38:59.945Z,46.5
2022-08-26T08:44:41.228Z,51.5
2022-08-26T08:50:30.282Z,45.1
2022-08-26T08:56:24.291Z,43.9
2022-08-26T09:02:17.014Z,49.8
2022-08-26T09:08:11.790Z,49.8
2022-08-26T09:14:01.438Z,44.3
2022-08-26T09:19:37.630Z,49.9
2022-08-26T09:25:35.182Z,56.1
2022-08-26T09:31:27.901Z,52.8
2022-08-26T09:37:21.242Z,51.3
2022-08-26T09:43:22.574Z,47.1
2022-08-26T09:49:15.757Z,49.4
2022-08-26T09:55:04.513Z,45.8
2022-08-26T10:00:49.595Z,47.1
2022-08-26T10:06:37.821Z,50.1
2022-08-26T10:12:22.988Z,52
2022-08-26T10:18:14.827Z,48.3
2022-08-26T10:24:29.935Z,51.3
2022-08-26T10:30:30.111Z,55.9
2022-08-26T10:36:34.100Z,49.3
2022-08-26T10:42:46.750Z,48.5
2022-08-26T10:48:39.395Z,48.3
2022-08-26T10:54:42.683Z,51.9
2022-08-26T11:00:31.534Z,55.6
2022-08-26T11:06:38.887Z,57.1
2022-08-26T11:12:31.640Z,58
2022-08-26T11:24:52.361Z,52.4
2022-08-26T11:31:13.490Z,50.3
2022-08-26T11:37:02.566Z,53.4
2022-08-26T11:42:58.097Z,55.9
2022-08-26T11:48:45.489Z,53.3
2022-08-26T11:54:35.435Z,53.7
2022-08-26T12:00:33.654Z,57.5
2022-08-26T12:06:05.309Z,58
2022-08-26T12:11:29.492Z,58.4
2022-08-26T12:16:59.408Z,58.4
2022-08-26T12:22:51.128Z,58.3
2022-08-26T12:28:34.018Z,58.7
2022-08-26T12:35:08.912Z,58.5
2022-08-26T12:40:53.685Z,58.3
2022-08-26T12:46:06.984Z,58
2022-08-26T12:51:57.635Z,58.1
2022-08-26T12:57:19.189Z,57.7
2022-08-26T13:03:04.713Z,57.9
2022-08-26T13:08:50.501Z,58.1
2022-08-26T13:14:15.908Z,57.4
2022-08-26T13:19:48.922Z,56.6
2022-08-26T13:25:36.296Z,56
2022-08-26T13:31:22.138Z,56.3
2022-08-26T13:36:52.775Z,56.1
2022-08-26T13:42:49.454Z,53.8
2022-08-26T13:48:28.023Z,51.7
2022-08-26T13:54:16.107Z,52.1
2022-08-26T13:59:56.876Z,53.3
2022-08-26T14:05:23.912Z,52.2
2022-08-26T14:11:06.955Z,50.7
2022-08-26T14:16:51.390Z,49.6
2022-08-26T14:23:10.662Z,48.4
2022-08-26T14:28:50.178Z,49.8
2022-08-26T14:34:27.351Z,50.3
2022-08-26T14:40:07.355Z,49.4
2022-08-26T14:46:11.593Z,48.3
2022-08-26T14:51:52.593Z,46.9
2022-08-26T14:57:31.687Z,45.6
2022-08-26T15:03:24.699Z,44.9
2022-08-26T15:09:03.423Z,44.6
2022-08-26T15:14:52.669Z,44.1
2022-08-26T15:20:14.824Z,43.7
2022-08-26T15:25:57.485Z,42.9
2022-08-26T15:31:22.825Z,41.9
2022-08-26T15:37:11.749Z,41
2022-08-26T15:42:54.489Z,40.1
2022-08-26T15:49:17.574Z,39
2022-08-26T15:55:00.901Z,37.9
2022-08-26T16:00:47.501Z,36.9
2022-08-26T16:06:32.263Z,36
2022-08-26T16:12:18.335Z,35.3
2022-08-26T16:18:11.641Z,34.7
2022-08-26T16:24:13.602Z,33.9
2022-08-26T16:29:56.763Z,33.4
2022-08-26T16:35:47.074Z,32.8
2022-08-26T16:41:29.955Z,32.3
2022-08-26T16:47:15.305Z,31.6
2022-08-26T16:52:55.596Z,31
2022-08-26T16:58:38.391Z,30.4
2022-08-26T17:04:16.776Z,29.8
2022-08-26T17:09:58.059Z,29.1
2022-08-26T17:15:51.994Z,28
2022-08-26T17:21:39.842Z,27
2022-08-26T17:27:12.142Z,26.3
2022-08-26T17:32:33.980Z,25.7
2022-08-26T17:38:05.829Z,25.2
2022-08-26T17:43:29.106Z,24.7
2022-08-26T17:49:15.712Z,24.2
2022-08-26T17:54:31.845Z,23.8
2022-08-26T18:00:04.773Z,23.4
2022-08-26T18:05:45.913Z,23.1
2022-08-26T18:11:26.001Z,22.8
2022-08-26T18:16:55.937Z,22.4
2022-08-26T18:22:15.591Z,22.1
2022-08-26T18:28:07.088Z,21.8
2022-08-26T18:33:47.595Z,21.4
2022-08-26T18:44:39.543Z,20.9
2022-08-26T18:50:20.952Z,20.6
2022-08-26T18:56:01.033Z,20.4
2022-08-26T19:01:48.433Z,20.2
2022-08-26T19:07:24.126Z,19.9
2022-08-26T19:13:08.655Z,19.6
2022-08-26T19:18:51.513Z,19.4
2022-08-26T19:24:44.885Z,19.1
2022-08-26T19:30:25.173Z,18.8
2022-08-26T19:35:52.249Z,18.6
2022-08-26T19:41:37.356Z,18.3
2022-08-26T19:47:10.108Z,18.1
2022-08-26T19:52:53.719Z,17.8
2022-08-26T19:58:34.787Z,17.6
2022-08-26T20:04:06.046Z,17.4
2022-08-26T20:10:08.428Z,17.3
2022-08-26T20:15:50.862Z,17.1
2022-08-26T20:21:56.770Z,16.9
2022-08-26T20:27:41.305Z,16.8
2022-08-26T20:33:09.556Z,16.6
2022-08-26T20:38:37.922Z,16.5
2022-08-26T20:43:49.851Z,16.3
2022-08-26T20:49:52.278Z,16.1
2022-08-26T20:55:18.198Z,16
2022-08-26T21:00:43.539Z,15.9
2022-08-26T21:06:30.590Z,15.7
2022-08-26T21:12:17.918Z,15.6
2022-08-26T21:18:02.507Z,15.4
2022-08-26T21:23:45.768Z,15.3
2022-08-26T21:29:27.113Z,15.2
2022-08-26T21:34:53.735Z,15.1
2022-08-26T21:40:39.966Z,15
2022-08-26T21:46:27.405Z,14.9
2022-08-26T21:52:05.642Z,14.8
2022-08-26T21:57:46.868Z,14.7
2022-08-26T22:03:24.314Z,14.6
2022-08-26T22:09:07.176Z,14.6
2022-08-26T22:14:16.032Z,14.4
2022-08-26T22:19:34.032Z,14.3
2022-08-26T22:25:09.838Z,14.3
2022-08-26T22:30:45.798Z,14.1
2022-08-26T22:36:43.270Z,14.1
2022-08-26T22:42:23.594Z,13.9
2022-08-26T22:47:52.282Z,13.8
2022-08-26T22:53:34.436Z,13.8
2022-08-26T22:59:21.109Z,13.7
2022-08-26T23:05:04.076Z,13.6
2022-08-26T23:10:30.488Z,13.5
2022-08-26T23:15:53.051Z,13.4
2022-08-26T23:21:24.581Z,13.4
2022-08-26T23:26:56.298Z,13.3
2022-08-26T23:32:02.043Z,13.2
2022-08-26T23:37:29.854Z,13.1
2022-08-26T23:43:08.943Z,13.1
2022-08-26T23:48:53.619Z,13.1
2022-08-26T23:54:14.174Z,13.1
2022-08-26T23:59:37.412Z,13
